AirNav   Jet Aviation Boston
 
 752 users online  

3I4 Richwood Municipal Airport
Richwood, West Virginia, USA

GOING TO RICHWOOD?


FAA INFORMATION EFFECTIVE 21 JUNE 2018

Location

FAA Identifier: 3I4
Lat/Long: 38-15-30.2000N / 080-39-04.8000W
38-15.503333N / 080-39.080000W
38.2583889 / -80.6513333
(estimated)
Elevation: 2486 ft. / 757.7 m (surveyed)
Variation: 06W (1985)
From city: 6 miles W of RICHWOOD, WV
Time zone: UTC -4 (UTC -5 during Standard Time)
Zip code: 26202

Airport Operations

Airport use: Open to the public
Activation date: 01/1960
Control tower: no
ARTCC: WASHINGTON CENTER
FSS: ELKINS FLIGHT SERVICE STATION [703-724-4288]
NOTAMs facility: EKN (NOTAM-D service available)
Attendance: IREG
Wind indicator: yes
Segmented circle: no
Lights: ACTVT LIRL RWY 10/28 5 CLICKS - CTAF.

Airport Communications

CTAF: 122.9

Nearby radio navigation aids

VOR radial/distance  VOR name  Freq  Var
RNLr027/(18.5)RAINELLE VOR116.6004W
LWBr341/26.7GREENBRIER VOR/DME116.0508W
BKWr044/36.3BECKLEY VOR/DME117.7006W

Airport Services

Parking: tiedowns
Bottled oxygen: NONE
Bulk oxygen: NONE

Runway Information

Runway 10/28

Dimensions: 3360 x 60 ft. / 1024 x 18 m
Surface: asphalt, in fair condition
SOFT SHOULDERS.
Runway edge lights: non-standard
RY 10/28 LIRL OTS INDFLY. NON-STANDARD SPACING, NO THLD LGTS.
Runway edge markings: RY 10/28 NUMBERS AND CNTRLN NON-STANDARD SIZE AND FADED.
RUNWAY 10  RUNWAY 28
Latitude: 38-15.531975N38-15.473707N
Longitude: 080-39.428585W080-38.730232W
Elevation: 2416.0 ft.2486.0 ft.
Gradient: 2.1% UP
Traffic pattern: leftleft
Runway heading: 102 magnetic, 096 true282 magnetic, 276 true
Markings: NSTD, in fair conditionNSTD, in fair condition
Obstructions: 18 ft. other, 222 ft. from runway, 60 ft. right of centerline, 1:1 slope to clear
30 FT TREES 0-200 FT FM THRESHOLD, 0-125 FT FM CENTERLINE BOTH SIDES.
70 ft. trees, 275 ft. from runway, 140 ft. left and right of centerline, 1:1 slope to clear
RY 28 10 FT GND 30-300 FT DSTC.

Airport Ownership and Management from official FAA records

Ownership: Publicly-owned
Owner: CITY OF RICHWOOD
6 WHITE AVE
RICHWOOD, WV 26261
Phone 304-846-2596
Manager: JOHN CAUDLE
1652 AIRPORT ROAD
FENWICK, WV 26202
Phone 304-846-6650
AFTR HRS 304-846-6650 OR 304-573-5964 (AMGR CELL) FOR ARPT ACCESS.

Airport Operational Statistics

Aircraft based on the field: 8
Single engine airplanes: 6
Ultralights: 2
    
Aircraft operations: 200/year *
50% transient general aviation
50% local general aviation
* for 12-month period ending 31 December 2016

Additional Remarks

RY 10/28 NO SNOW REMOVAL. RUNWAY FREQUENTLY SNOW COVERED WINTER MONTHS.
DEER & BIRDS ON & INVOF ARPT.
ARPT CLSD NIGHTS.
PARALLEL TWY CLSD OCT-APR.
ARPT PHYS. ADDR. 3437 AIRPORT RD. RICHWOOD, WV.

Instrument Procedures

There are no published instrument procedures at 3I4.

Some nearby airports with instrument procedures:

KSXL - Summersville Airport (10 nm W)
48I - Braxton County Airport (26 nm N)
KLWB - Greenbrier Valley Airport (27 nm SE)
KBKW - Raleigh County Memorial Airport (36 nm SW)
KHSP - Ingalls Field Airport (43 nm SE)
 
Loc | Ops | Rwys | IFR | FBO | Links
Com | Nav | Svcs | Stats | Notes

AirNav Hotels Sweepstakes
 
Area around 3I4 (Richwood Municipal Airport)
 
Road maps at: MapQuest Bing Google
 
Aerial photo
WARNING: Photo may not be current or correct
Aerial photo of 3I4 (Richwood Municipal Airport)
Photo taken 23-May-2009
looking northeast.

Do you have a better or more recent aerial photo of Richwood Municipal Airport that you would like to share? If so, please send us your photo.

 
Sectional chart

 
Airport distance calculator
Flying to Richwood Municipal Airport? Find the distance to fly.

From to 3I4

Sunrise and sunset
Times for 22-Jun-2018
 Local
(UTC-4)
 Zulu
(UTC)
Morning civil twilight05:2909:29
Sunrise06:0110:01
Sunset20:4800:48
Evening civil twilight21:2001:20

Current date and time
Zulu (UTC)  23-Jun-2018 03:50:27
Local (UTC-4)  22-Jun-2018 23:50:27
 
METAR
KLWB 
26nm SE 
230335Z AUTO 03007KT 10SM SCT001 BKN075 BKN100 18/17 A2989 RMK AO2 P0001 T01760173
KBKW 
35nm SW 
230251Z AUTO 14007KT 10SM FEW095 BKN110 19/17 A2987 RMK AO2 SLP080 T01940167 51005 TSNO
KHSP 
44nm SE 
230335Z AUTO 00000KT 10SM CLR 16/16 A2997 RMK AO2 T01590159
KCRW 
45nm W 
230254Z VRB03KT 7SM SCT003 SCT065 BKN090 OVC130 20/20 A2976 RMK AO2 LTG DSNT W SLP071 CB DSNT SW-W VLY FG 60000 T02000200 50000
KW22 
48nm N 
230335Z AUTO 00000KT 10SM FEW042 SCT048 SCT085 19/19 A2982 RMK AO2
TAF
KLWB 
26nm SE 
222056Z 2221/2318 35006KT P6SM SCT013 BKN080 TEMPO 2300/2302 15012G25KT 2SM SHRA OVC007 FM230200 05005KT P6SM VCTS BKN090CB FM230600 VRB03KT P6SM VCSH SCT003 BKN015 FM230900 00000KT 1 1/2SM BR BKN003 FM231500 24008KT P6SM BKN040
NOTAMs
Click for the latest NOTAMs
NOTAMs are issued by the DoD/FAA and will open in a separate window not controlled by AirNav.

 

 
 

Would you like to see your business listed on this page?

 If your business provides an interesting product or service to pilots, flight crews, aircraft, or users of the Richwood Municipal Airport, you should consider listing it here.  To start the listing process, click on the button below
 
Add a business
 

Other Pages about Richwood Municipal Airport

Update a link
 
Copyright © AirNav, LLC. All rights reserved. Privacy Policy  Contact